Time,TemperatureF,DewpointF,PressureIn,WindDirection,WindDirectionDegrees,WindSpeedMPH,WindSpeedGustMPH,Humidity,HourlyPrecipIn,Conditions,Clouds,dailyrainin,SoftwareType,DateUTC
2013-06-17 00:00:00,84.9,72.3,29.84,South,184,9.0,15.0,66,0.00,,,0.00,VWS V15.00,2013-06-17 05:00:00,
2013-06-17 00:02:00,82.5,73.4,29.84,South,184,14.0,14.0,74,0.00,,,0.00,VWS V13.01,2013-06-17 05:02:00,
2013-06-17 00:07:00,82.3,73.6,29.84,SSW,200,7.0,15.0,75,0.00,,,0.00,VWS V13.01,2013-06-17 05:07:00,
2013-06-17 00:10:00,84.5,72.8,29.84,SW,217,6.0,13.0,68,0.00,,,0.00,VWS V15.00,2013-06-17 05:10:00,
2013-06-17 00:12:00,82.2,73.5,29.84,SSW,198,10.0,11.0,75,0.00,,,0.00,VWS V13.01,2013-06-17 05:12:00,
2013-06-17 00:17:00,82.0,73.3,29.84,SSW,202,11.0,17.0,75,0.00,,,0.00,VWS V13.01,2013-06-17 05:17:00,
2013-06-17 00:20:00,84.2,73.4,29.84,SSW,198,3.0,19.0,70,0.00,,,0.00,VWS V15.00,2013-06-17 05:20:00,
2013-06-17 00:22:00,81.9,73.2,29.84,South,179,11.0,17.0,75,0.00,,,0.00,VWS V13.01,2013-06-17 05:22:00,
2013-06-17 00:27:00,81.8,73.5,29.84,SSW,199,6.0,17.0,76,0.00,,,0.00,VWS V13.01,2013-06-17 05:27:00,
2013-06-17 00:30:00,83.8,73.4,29.84,SSW,198,8.0,19.0,71,0.00,,,0.00,VWS V15.00,2013-06-17 05:30:00,
2013-06-17 00:32:00,81.6,73.3,29.86,SSW,199,7.0,10.0,76,0.00,,,0.00,VWS V13.01,2013-06-17 05:32:00,
2013-06-17 00:37:00,81.5,73.2,29.86,SSW,199,5.0,13.0,76,0.00,,,0.00,VWS V13.01,2013-06-17 05:37:00,
2013-06-17 00:40:00,83.4,73.4,29.84,SW,230,15.0,25.0,72,0.00,,,0.00,VWS V15.00,2013-06-17 05:40:00,
2013-06-17 00:42:00,81.3,73.0,29.86,SSW,205,9.0,15.0,76,0.00,,,0.00,VWS V13.01,2013-06-17 05:42:00,
2013-06-17 00:47:00,81.2,72.9,29.86,SW,225,2.0,17.0,76,0.00,,,0.00,VWS V13.01,2013-06-17 05:47:00,
2013-06-17 00:50:00,82.9,73.8,29.85,SSW,209,7.0,17.0,74,0.00,,,0.00,VWS V15.00,2013-06-17 05:50:00,
2013-06-17 00:52:00,81.0,72.7,29.86,SSW,202,9.0,9.0,76,0.00,,,0.00,VWS V13.01,2013-06-17 05:52:00,
2013-06-17 00:57:00,80.8,72.9,29.86,SSW,209,7.0,18.0,77,0.00,,,0.00,VWS V13.01,2013-06-17 05:57:00,
2013-06-17 01:00:00,82.5,73.4,29.84,SSW,206,6.0,17.0,74,0.00,,,0.00,VWS V15.00,2013-06-17 06:00:00,
2013-06-17 01:02:00,80.6,72.7,29.86,SSW,198,0.0,9.0,77,0.00,,,0.00,VWS V13.01,2013-06-17 06:02:00,
2013-06-17 01:07:00,80.4,72.5,29.86,SSW,198,0.0,12.0,77,0.00,,,0.00,VWS V13.01,2013-06-17 06:07:00,
2013-06-17 01:10:00,82.2,73.5,29.84,SSW,195,10.0,17.0,75,0.00,,,0.00,VWS V15.00,2013-06-17 06:10:00,
2013-06-17 01:12:00,80.3,72.4,29.86,SSW,211,7.0,9.0,77,0.00,,,0.00,VWS V13.01,2013-06-17 06:12:00,
2013-06-17 01:17:00,80.1,72.2,29.86,SSW,205,12.0,12.0,77,0.00,,,0.00,VWS V13.01,2013-06-17 06:17:00,
2013-06-17 01:20:00,81.9,73.2,29.84,SSW,194,14.0,18.0,75,0.00,,,0.00,VWS V15.00,2013-06-17 06:20:00,
2013-06-17 01:22:00,80.0,72.2,29.86,SSW,195,5.0,15.0,77,0.00,,,0.00,VWS V13.01,2013-06-17 06:22:00,
2013-06-17 01:27:00,79.9,72.1,29.86,SW,214,0.0,15.0,77,0.00,,,0.00,VWS V13.01,2013-06-17 06:27:00,
2013-06-17 01:30:00,81.6,73.3,29.86,SSW,193,0.0,17.0,76,0.00,,,0.00,VWS V15.00,2013-06-17 06:30:00,
2013-06-17 01:32:00,79.8,71.9,29.86,SSE,163,2.0,11.0,77,0.00,,,0.00,VWS V13.01,2013-06-17 06:32:00,
2013-06-17 01:37:00,79.8,71.9,29.86,SSW,196,9.0,11.0,77,0.00,,,0.00,VWS V13.01,2013-06-17 06:37:00,
2013-06-17 01:40:00,81.4,73.1,29.86,SSW,199,9.0,16.0,76,0.00,,,0.00,VWS V15.00,2013-06-17 06:40:00,
2013-06-17 01:42:00,79.8,71.9,29.86,SSW,197,0.0,7.0,77,0.00,,,0.00,VWS V13.01,2013-06-17 06:42:00,
2013-06-17 01:47:00,79.7,72.2,29.86,SSW,198,0.0,11.0,78,0.00,,,0.00,VWS V13.01,2013-06-17 06:47:00,
2013-06-17 01:50:00,81.0,72.7,29.86,SSW,192,0.0,17.0,76,0.00,,,0.00,VWS V15.00,2013-06-17 06:50:00,
2013-06-17 01:52:00,79.6,72.1,29.86,SSW,194,7.0,8.0,78,0.00,,,0.00,VWS V13.01,2013-06-17 06:52:00,
2013-06-17 01:57:00,79.5,72.4,29.86,SSE,160,0.0,9.0,79,0.00,,,0.00,VWS V13.01,2013-06-17 06:57:00,
2013-06-17 02:00:00,80.6,72.7,29.86,SSW,200,3.0,18.0,77,0.00,,,0.00,VWS V15.00,2013-06-17 07:00:00,
2013-06-17 02:02:00,79.4,72.3,29.86,South,170,0.0,6.0,79,0.00,,,0.00,VWS V13.01,2013-06-17 07:02:00,
2013-06-17 02:07:00,79.2,72.5,29.86,South,186,0.0,7.0,80,0.00,,,0.00,VWS V13.01,2013-06-17 07:07:00,
2013-06-17 02:10:00,80.3,72.4,29.86,SSW,196,9.0,12.0,77,0.00,,,0.00,VWS V15.00,2013-06-17 07:10:00,
2013-06-17 02:12:00,79.1,72.4,29.86,South,180,2.0,4.0,80,0.00,,,0.00,VWS V13.01,2013-06-17 07:12:00,
2013-06-17 02:17:00,79.0,72.7,29.86,SSW,213,5.0,6.0,81,0.00,,,0.00,VWS V13.01,2013-06-17 07:17:00,
2013-06-17 02:20:00,80.0,72.2,29.86,South,189,12.0,15.0,77,0.00,,,0.00,VWS V15.00,2013-06-17 07:20:00,
2013-06-17 02:23:00,78.8,72.5,29.86,South,189,0.0,0.0,81,0.00,,,0.00,VWS V13.01,2013-06-17 07:23:00,
2013-06-17 02:28:00,78.7,72.4,29.86,SSW,204,0.0,0.0,81,0.00,,,0.00,VWS V13.01,2013-06-17 07:28:00,
2013-06-17 02:30:00,79.9,72.1,29.86,South,188,11.0,15.0,77,0.00,,,0.00,VWS V15.00,2013-06-17 07:30:00,
2013-06-17 02:33:00,78.7,72.4,29.86,SSW,202,0.0,0.0,81,0.00,,,0.00,VWS V13.01,2013-06-17 07:33:00,
2013-06-17 02:38:00,78.5,72.6,29.86,South,191,0.0,0.0,82,0.00,,,0.00,VWS V13.01,2013-06-17 07:38:00,
2013-06-17 02:40:00,79.8,71.9,29.86,SSE,163,0.0,11.0,77,0.00,,,0.00,VWS V15.00,2013-06-17 07:40:00,
2013-06-17 02:43:00,78.5,72.6,29.86,South,184,5.0,5.0,82,0.00,,,0.00,VWS V13.01,2013-06-17 07:43:00,
2013-06-17 02:48:00,78.3,72.4,29.86,SSW,209,0.0,8.0,82,0.00,,,0.00,VWS V13.01,2013-06-17 07:48:00,
2013-06-17 02:50:00,79.6,72.1,29.86,South,169,0.0,12.0,78,0.00,,,0.00,VWS V15.00,2013-06-17 07:50:00,
2013-06-17 02:53:00,78.2,72.3,29.86,SW,218,0.0,7.0,82,0.00,,,0.00,VWS V13.01,2013-06-17 07:53:00,
2013-06-17 02:58:00,78.1,72.2,29.86,South,173,0.0,7.0,82,0.00,,,0.00,VWS V13.01,2013-06-17 07:58:00,
2013-06-17 03:00:00,79.4,72.3,29.86,South,190,0.0,9.0,79,0.00,,,0.00,VWS V15.00,2013-06-17 08:00:00,
2013-06-17 03:03:00,78.0,72.1,29.85,SE,130,5.0,11.0,82,0.00,,,0.00,VWS V13.01,2013-06-17 08:03:00,
2013-06-17 03:08:00,78.0,72.1,29.85,South,182,0.0,11.0,82,0.00,,,0.00,VWS V13.01,2013-06-17 08:08:00,
2013-06-17 03:10:00,79.1,72.4,29.86,South,183,0.0,7.0,80,0.00,,,0.00,VWS V15.00,2013-06-17 08:10:00,
2013-06-17 03:13:00,77.9,72.0,29.85,SSW,207,0.0,7.0,82,0.00,,,0.00,VWS V13.01,2013-06-17 08:13:00,
2013-06-17 03:18:00,77.9,72.0,29.85,SSW,203,4.0,9.0,82,0.00,,,0.00,VWS V13.01,2013-06-17 08:18:00,
2013-06-17 03:20:00,78.9,72.6,29.86,SW,215,0.0,9.0,81,0.00,,,0.00,VWS V15.00,2013-06-17 08:20:00,
2013-06-17 03:23:00,77.8,71.9,29.85,SSW,196,11.0,11.0,82,0.00,,,0.00,VWS V13.01,2013-06-17 08:23:00,
2013-06-17 03:28:00,77.7,72.1,29.85,SSW,198,0.0,12.0,83,0.00,,,0.00,VWS V13.01,2013-06-17 08:28:00,
2013-06-17 03:30:00,78.7,72.4,29.86,SSW,204,0.0,0.0,81,0.00,,,0.00,VWS V15.00,2013-06-17 08:30:00,
2013-06-17 03:33:00,77.7,72.1,29.84,SW,226,4.0,7.0,83,0.00,,,0.00,VWS V13.01,2013-06-17 08:33:00,
2013-06-17 03:38:00,77.6,72.0,29.84,South,188,0.0,8.0,83,0.00,,,0.00,VWS V13.01,2013-06-17 08:38:00,
2013-06-17 03:40:00,78.5,72.6,29.86,SSE,168,0.0,0.0,82,0.00,,,0.00,VWS V15.00,2013-06-17 08:40:00,
2013-06-17 03:43:00,77.5,71.9,29.84,SSW,199,0.0,6.0,83,0.00,,,0.00,VWS V13.01,2013-06-17 08:43:00,
2013-06-17 03:48:00,77.5,71.9,29.84,SW,232,0.0,13.0,83,0.00,,,0.00,VWS V13.01,2013-06-17 08:48:00,
2013-06-17 03:50:00,78.3,72.4,29.86,SSW,209,0.0,8.0,82,0.00,,,0.00,VWS V15.00,2013-06-17 08:50:00,
2013-06-17 03:53:00,77.5,71.9,29.84,SSW,209,7.0,11.0,83,0.00,,,0.00,VWS V13.01,2013-06-17 08:53:00,
2013-06-17 03:58:00,77.4,71.8,29.84,SSW,202,5.0,11.0,83,0.00,,,0.00,VWS V13.01,2013-06-17 08:58:00,
2013-06-17 04:00:00,78.1,72.2,29.85,SSE,168,0.0,7.0,82,0.00,,,0.00,VWS V15.00,2013-06-17 09:00:00,
2013-06-17 04:03:00,77.4,71.8,29.84,SSW,202,9.0,9.0,83,0.00,,,0.00,VWS V13.01,2013-06-17 09:03:00,
2013-06-17 04:08:00,77.4,71.8,29.84,South,184,3.0,11.0,83,0.00,,,0.00,VWS V13.01,2013-06-17 09:08:00,
2013-06-17 04:10:00,77.9,72.0,29.85,SW,217,0.0,11.0,82,0.00,,,0.00,VWS V15.00,2013-06-17 09:10:00,
2013-06-17 04:13:00,77.3,71.7,29.84,SSW,206,0.0,10.0,83,0.00,,,0.00,VWS V13.01,2013-06-17 09:13:00,
2013-06-17 04:18:00,77.3,71.7,29.83,SW,236,0.0,10.0,83,0.00,,,0.00,VWS V13.01,2013-06-17 09:18:00,
2013-06-17 04:20:00,77.9,72.0,29.85,South,186,0.0,9.0,82,0.00,,,0.00,VWS V15.00,2013-06-17 09:20:00,
2013-06-17 04:23:00,77.3,71.7,29.83,SSW,200,10.0,10.0,83,0.00,,,0.00,VWS V13.01,2013-06-17 09:23:00,
2013-06-17 04:28:00,77.2,71.6,29.83,SSW,199,7.0,10.0,83,0.00,,,0.00,VWS V13.01,2013-06-17 09:28:00,
2013-06-17 04:30:00,77.7,72.1,29.84,SSW,202,0.0,12.0,83,0.00,,,0.00,VWS V15.00,2013-06-17 09:30:00,
2013-06-17 04:33:00,77.2,71.6,29.84,SSW,203,8.0,10.0,83,0.00,,,0.00,VWS V13.01,2013-06-17 09:33:00,
2013-06-17 04:38:00,77.1,71.5,29.84,SSW,194,0.0,12.0,83,0.00,,,0.00,VWS V13.01,2013-06-17 09:38:00,
2013-06-17 04:40:00,77.5,71.9,29.84,SSW,201,1.0,10.0,83,0.00,,,0.00,VWS V15.00,2013-06-17 09:40:00,
2013-06-17 04:43:00,77.1,71.5,29.84,SW,223,0.0,5.0,83,0.00,,,0.00,VWS V13.01,2013-06-17 09:43:00,
2013-06-17 04:48:00,77.1,71.5,29.84,SSW,194,0.0,6.0,83,0.00,,,0.00,VWS V13.01,2013-06-17 09:48:00,
2013-06-17 04:50:00,77.5,71.9,29.84,SSW,194,0.0,13.0,83,0.00,,,0.00,VWS V15.00,2013-06-17 09:50:00,
2013-06-17 04:53:00,77.2,71.6,29.84,SSW,197,7.0,7.0,83,0.00,,,0.00,VWS V13.01,2013-06-17 09:53:00,
2013-06-17 04:58:00,77.2,71.6,29.84,SSW,197,0.0,7.0,83,0.00,,,0.00,VWS V13.01,2013-06-17 09:58:00,
2013-06-17 05:00:00,77.4,71.8,29.84,SSW,204,0.0,11.0,83,0.00,,,0.00,VWS V15.00,2013-06-17 10:00:00,
2013-06-17 05:03:00,77.2,71.6,29.85,South,188,11.0,11.0,83,0.00,,,0.00,VWS V13.01,2013-06-17 10:03:00,
2013-06-17 05:08:00,77.2,71.6,29.85,SSW,198,6.0,11.0,83,0.00,,,0.00,VWS V13.01,2013-06-17 10:08:00,
2013-06-17 05:10:00,77.4,71.8,29.84,SSW,201,9.0,11.0,83,0.00,,,0.00,VWS V15.00,2013-06-17 10:10:00,
2013-06-17 05:13:00,77.2,71.6,29.85,SSW,195,7.0,11.0,83,0.00,,,0.00,VWS V13.01,2013-06-17 10:13:00,
2013-06-17 05:18:00,77.2,71.6,29.84,SSW,196,8.0,11.0,83,0.00,,,0.00,VWS V13.01,2013-06-17 10:18:00,
2013-06-17 05:20:00,77.3,71.7,29.83,SSW,207,0.0,10.0,83,0.00,,,0.00,VWS V15.00,2013-06-17 10:20:00,
2013-06-17 05:23:00,77.2,71.6,29.84,SSW,199,0.0,9.0,83,0.00,,,0.00,VWS V13.01,2013-06-17 10:23:00,
2013-06-17 05:28:00,77.1,71.5,29.84,SSW,199,0.0,11.0,83,0.00,,,0.00,VWS V13.01,2013-06-17 10:28:00,
2013-06-17 05:30:00,77.2,71.6,29.84,SSW,200,3.0,11.0,83,0.00,,,0.00,VWS V15.00,2013-06-17 10:30:00,
2013-06-17 05:34:00,77.1,71.5,29.85,SSW,195,8.0,12.0,83,0.00,,,0.00,VWS V13.01,2013-06-17 10:34:00,
2013-06-17 05:39:00,77.1,71.5,29.85,SSW,201,0.0,12.0,83,0.00,,,0.00,VWS V13.01,2013-06-17 10:39:00,
2013-06-17 05:40:00,77.1,71.5,29.84,SSW,199,0.0,12.0,83,0.00,,,0.00,VWS V15.00,2013-06-17 10:40:00,
2013-06-17 05:44:00,77.0,71.4,29.85,SW,216,9.0,12.0,83,0.00,,,0.00,VWS V13.01,2013-06-17 10:44:00,
2013-06-17 05:49:00,77.0,71.4,29.85,SW,231,10.0,13.0,83,0.00,,,0.00,VWS V13.01,2013-06-17 10:49:00,
2013-06-17 05:50:00,77.1,71.5,29.84,South,187,0.0,6.0,83,0.00,,,0.00,VWS V15.00,2013-06-17 10:50:00,
2013-06-17 05:54:00,77.0,71.4,29.85,South,186,5.0,11.0,83,0.00,,,0.00,VWS V13.01,2013-06-17 10:54:00,
2013-06-17 05:59:00,77.0,71.4,29.85,SW,233,0.0,11.0,83,0.00,,,0.00,VWS V13.01,2013-06-17 10:59:00,
2013-06-17 06:00:00,77.2,71.6,29.85,SSW,195,0.0,7.0,83,0.00,,,0.00,VWS V15.00,2013-06-17 11:00:00,
2013-06-17 06:04:00,76.9,71.0,29.86,SW,236,0.0,10.0,82,0.00,,,0.00,VWS V13.01,2013-06-17 11:04:00,
2013-06-17 06:09:00,76.9,71.0,29.86,WSW,238,0.0,11.0,82,0.00,,,0.00,VWS V13.01,2013-06-17 11:09:00,
2013-06-17 06:10:00,77.2,71.6,29.85,South,186,9.0,13.0,83,0.00,,,0.00,VWS V15.00,2013-06-17 11:10:00,
2013-06-17 06:14:00,76.9,71.0,29.86,SSW,210,4.0,6.0,82,0.00,,,0.00,VWS V13.01,2013-06-17 11:14:00,
2013-06-17 06:19:00,76.9,71.0,29.87,SW,221,0.0,9.0,82,0.00,,,0.00,VWS V13.01,2013-06-17 11:19:00,
2013-06-17 06:20:00,77.2,71.6,29.84,South,186,0.0,11.0,83,0.00,,,0.00,VWS V15.00,2013-06-17 11:20:00,
2013-06-17 06:24:00,76.9,71.0,29.87,SSW,197,0.0,7.0,82,0.00,,,0.00,VWS V13.01,2013-06-17 11:24:00,
2013-06-17 06:29:00,76.9,71.0,29.87,SSW,196,0.0,7.0,82,0.00,,,0.00,VWS V13.01,2013-06-17 11:29:00,
2013-06-17 06:30:00,77.1,71.5,29.85,SSW,197,0.0,11.0,83,0.00,,,0.00,VWS V15.00,2013-06-17 11:30:00,
2013-06-17 06:34:00,76.8,71.2,29.88,SSW,195,0.0,0.0,83,0.00,,,0.00,VWS V13.01,2013-06-17 11:34:00,
2013-06-17 06:39:00,76.8,70.9,29.88,SSW,202,5.0,9.0,82,0.00,,,0.00,VWS V13.01,2013-06-17 11:39:00,
2013-06-17 06:40:00,77.0,71.4,29.85,SW,218,0.0,12.0,83,0.00,,,0.00,VWS V15.00,2013-06-17 11:40:00,
2013-06-17 06:44:00,76.7,70.8,29.88,SSW,198,0.0,3.0,82,0.00,,,0.00,VWS V13.01,2013-06-17 11:44:00,
2013-06-17 06:49:00,76.7,70.8,29.87,SSW,200,0.0,7.0,82,0.00,,,0.00,VWS V13.01,2013-06-17 11:49:00,
2013-06-17 06:50:00,77.0,71.4,29.85,SSW,196,11.0,13.0,83,0.00,,,0.00,VWS V15.00,2013-06-17 11:50:00,
2013-06-17 06:54:00,76.7,70.8,29.87,SSW,211,0.0,0.0,82,0.00,,,0.00,VWS V13.01,2013-06-17 11:54:00,
2013-06-17 06:59:00,76.7,71.2,29.87,SSW,210,0.0,0.0,83,0.00,,,0.00,VWS V13.01,2013-06-17 11:59:00,
2013-06-17 07:00:00,76.9,71.3,29.86,SW,229,0.0,11.0,83,0.00,,,0.00,VWS V15.00,2013-06-17 12:00:00,
2013-06-17 07:04:00,76.6,70.7,29.88,SSW,210,0.0,0.0,82,0.00,,,0.00,VWS V13.01,2013-06-17 12:04:00,
2013-06-17 07:09:00,76.6,71.1,29.88,SSW,210,0.0,0.0,83,0.00,,,0.00,VWS V13.01,2013-06-17 12:09:00,
2013-06-17 07:10:00,76.9,71.0,29.86,SSW,211,0.0,11.0,82,0.00,,,0.00,VWS V15.00,2013-06-17 12:10:00,
2013-06-17 07:14:00,76.7,71.2,29.88,SSW,210,0.0,0.0,83,0.00,,,0.00,VWS V13.01,2013-06-17 12:14:00,
2013-06-17 07:19:00,76.7,71.2,29.87,SSW,210,0.0,0.0,83,0.00,,,0.00,VWS V13.01,2013-06-17 12:19:00,
2013-06-17 07:20:00,76.9,71.0,29.87,SSW,211,0.0,9.0,82,0.00,,,0.00,VWS V15.00,2013-06-17 12:20:00,
2013-06-17 07:24:00,76.7,71.2,29.87,SSW,210,0.0,0.0,83,0.00,,,0.00,VWS V13.01,2013-06-17 12:24:00,
2013-06-17 07:29:00,76.6,71.1,29.87,SSW,211,0.0,0.0,83,0.00,,,0.00,VWS V13.01,2013-06-17 12:29:00,
2013-06-17 07:30:00,76.9,71.0,29.88,SSW,196,0.0,7.0,82,0.00,,,0.00,VWS V15.00,2013-06-17 12:30:00,
2013-06-17 07:34:00,76.6,71.1,29.87,SSW,211,0.0,0.0,83,0.00,,,0.00,VWS V13.01,2013-06-17 12:34:00,
2013-06-17 07:39:00,76.7,71.2,29.87,SSW,211,0.0,0.0,83,0.00,,,0.00,VWS V13.01,2013-06-17 12:39:00,
2013-06-17 07:40:00,76.7,70.8,29.88,SSW,200,0.0,9.0,82,0.00,,,0.00,VWS V15.00,2013-06-17 12:40:00,
2013-06-17 07:44:00,76.8,71.2,29.87,SSW,210,0.0,0.0,83,0.00,,,0.00,VWS V13.01,2013-06-17 12:44:00,
2013-06-17 07:49:00,76.8,71.2,29.88,SSW,211,0.0,0.0,83,0.00,,,0.00,VWS V13.01,2013-06-17 12:49:00,
2013-06-17 07:50:00,76.7,70.8,29.87,SSW,205,0.0,7.0,82,0.00,,,0.00,VWS V15.00,2013-06-17 12:50:00,
2013-06-17 07:54:00,77.0,71.4,29.88,SSW,211,0.0,0.0,83,0.00,,,0.00,VWS V13.01,2013-06-17 12:54:00,
2013-06-17 07:59:00,77.1,71.2,29.88,SSW,211,0.0,0.0,82,0.00,,,0.00,VWS V13.01,2013-06-17 12:59:00,
2013-06-17 08:00:00,76.7,70.8,29.88,SSW,210,0.0,0.0,82,0.00,,,0.00,VWS V15.00,2013-06-17 13:00:00,
2013-06-17 08:04:00,77.1,71.2,29.88,SSW,211,0.0,0.0,82,0.00,,,0.00,VWS V13.01,2013-06-17 13:04:00,
2013-06-17 08:09:00,77.3,71.4,29.88,SSW,212,0.0,0.0,82,0.00,,,0.00,VWS V13.01,2013-06-17 13:09:00,
2013-06-17 08:10:00,76.7,70.8,29.88,SSW,210,0.0,0.0,82,0.00,,,0.00,VWS V15.00,2013-06-17 13:10:00,
2013-06-17 08:14:00,77.5,71.6,29.88,SSW,194,0.0,0.0,82,0.00,,,0.00,VWS V13.01,2013-06-17 13:14:00,
2013-06-17 08:19:00,77.8,71.9,29.89,SSW,194,0.0,0.0,82,0.00,,,0.00,VWS V13.01,2013-06-17 13:19:00,
2013-06-17 08:20:00,76.7,71.2,29.87,SSW,210,0.0,0.0,83,0.00,,,0.00,VWS V15.00,2013-06-17 13:20:00,
2013-06-17 08:24:00,78.0,71.7,29.89,SSW,194,0.0,0.0,81,0.00,,,0.00,VWS V13.01,2013-06-17 13:24:00,
2013-06-17 08:29:00,78.3,72.0,29.89,SSW,194,0.0,0.0,81,0.00,,,0.00,VWS V13.01,2013-06-17 13:29:00,
2013-06-17 08:30:00,76.6,71.1,29.87,SSW,210,0.0,0.0,83,0.00,,,0.00,VWS V15.00,2013-06-17 13:30:00,
2013-06-17 08:34:00,78.7,72.0,29.89,SSW,194,0.0,0.0,80,0.00,,,0.00,VWS V13.01,2013-06-17 13:34:00,
2013-06-17 08:39:00,78.9,71.8,29.89,SSW,195,0.0,0.0,79,0.00,,,0.00,VWS V13.01,2013-06-17 13:39:00,
2013-06-17 08:40:00,76.7,71.2,29.87,SSW,211,0.0,0.0,83,0.00,,,0.00,VWS V15.00,2013-06-17 13:40:00,
2013-06-17 08:44:00,79.2,71.8,29.89,SW,227,0.0,0.0,78,0.00,,,0.00,VWS V13.01,2013-06-17 13:44:00,
2013-06-17 08:49:00,79.6,72.1,29.89,SSW,207,0.0,0.0,78,0.00,,,0.00,VWS V13.01,2013-06-17 13:49:00,
2013-06-17 08:50:00,76.9,71.3,29.88,SSW,210,0.0,0.0,83,0.00,,,0.00,VWS V15.00,2013-06-17 13:50:00,
2013-06-17 08:55:00,79.8,71.9,29.89,SSW,199,6.0,6.0,77,0.00,,,0.00,VWS V13.01,2013-06-17 13:55:00,
2013-06-17 09:00:00,79.9,72.1,29.89,SSW,200,0.0,6.0,77,0.00,,,0.00,VWS V13.01,2013-06-17 14:00:00,
2013-06-17 09:05:00,80.1,72.2,29.91,SSW,200,0.0,0.0,77,0.00,,,0.00,VWS V13.01,2013-06-17 14:05:00,
2013-06-17 09:10:00,80.2,72.3,29.91,SW,229,0.0,6.0,77,0.00,,,0.00,VWS V13.01,2013-06-17 14:10:00,
2013-06-17 09:15:00,80.5,72.2,29.91,SW,234,0.0,9.0,76,0.00,,,0.00,VWS V13.01,2013-06-17 14:15:00,
2013-06-17 09:20:00,81.0,71.5,29.91,WSW,238,2.0,12.0,73,0.00,,,0.00,VWS V13.01,2013-06-17 14:20:00,
2013-06-17 09:25:00,81.4,71.9,29.91,WSW,237,6.0,10.0,73,0.00,,,0.00,VWS V13.01,2013-06-17 14:25:00,
2013-06-17 09:30:00,81.6,72.1,29.91,WSW,240,2.0,11.0,73,0.00,,,0.00,VWS V13.01,2013-06-17 14:30:00,
2013-06-17 09:35:00,82.2,72.3,29.92,WSW,240,0.0,3.0,72,0.00,,,0.00,VWS V13.01,2013-06-17 14:35:00,
2013-06-17 09:40:00,82.5,72.2,29.92,WSW,238,0.0,7.0,71,0.00,,,0.00,VWS V13.01,2013-06-17 14:40:00,
2013-06-17 09:45:00,82.8,72.4,29.92,WSW,242,6.0,10.0,71,0.00,,,0.00,VWS V13.01,2013-06-17 14:45:00,
2013-06-17 09:50:00,82.8,72.0,29.92,WSW,242,7.0,11.0,70,0.00,,,0.00,VWS V13.01,2013-06-17 14:50:00,
2013-06-17 09:55:00,82.9,71.7,29.92,WSW,245,6.0,9.0,69,0.00,,,0.00,VWS V13.01,2013-06-17 14:55:00,
2013-06-17 10:00:00,83.1,71.9,29.92,WSW,242,4.0,9.0,69,0.00,,,0.00,VWS V13.01,2013-06-17 15:00:00,
2013-06-17 10:05:00,83.1,72.3,29.92,WSW,241,4.0,6.0,70,0.00,,,0.00,VWS V13.01,2013-06-17 15:05:00,
2013-06-17 10:10:00,83.2,72.0,29.92,WSW,241,0.0,7.0,69,0.00,,,0.00,VWS V13.01,2013-06-17 15:10:00,
2013-06-17 10:15:00,83.5,71.8,29.92,WSW,246,6.0,9.0,68,0.00,,,0.00,VWS V13.01,2013-06-17 15:15:00,
2013-06-17 10:20:00,83.6,71.5,29.92,WSW,242,2.0,10.0,67,0.00,,,0.00,VWS V13.01,2013-06-17 15:20:00,
2013-06-17 10:25:00,83.9,72.2,29.92,SSW,209,7.0,7.0,68,0.00,,,0.00,VWS V13.01,2013-06-17 15:25:00,
2013-06-17 10:30:00,84.4,72.2,29.92,SSW,210,0.0,7.0,67,0.00,,,0.00,VWS V13.01,2013-06-17 15:30:00,
2013-06-17 10:35:00,84.7,72.1,29.91,SSW,198,9.0,11.0,66,0.00,,,0.00,VWS V13.01,2013-06-17 15:35:00,
2013-06-17 10:40:00,85.1,72.0,29.91,SSW,200,0.0,11.0,65,0.00,,,0.00,VWS V13.01,2013-06-17 15:40:00,
2013-06-17 10:45:00,85.9,72.8,29.91,SSW,198,2.0,8.0,65,0.00,,,0.00,VWS V13.01,2013-06-17 15:45:00,
2013-06-17 10:50:00,86.0,72.4,29.91,SSW,193,6.0,8.0,64,0.00,,,0.00,VWS V13.01,2013-06-17 15:50:00,
2013-06-17 10:55:00,86.6,73.0,29.91,SW,229,5.0,11.0,64,0.00,,,0.00,VWS V13.01,2013-06-17 15:55:00,
2013-06-17 11:00:00,87.2,72.1,29.91,WSW,239,3.0,11.0,61,0.00,,,0.00,VWS V13.01,2013-06-17 16:00:00,
2013-06-17 11:05:00,87.6,72.5,29.91,SSW,209,7.0,9.0,61,0.00,,,0.00,VWS V13.01,2013-06-17 16:05:00,
2013-06-17 11:10:00,87.6,72.5,29.91,SW,218,4.0,12.0,61,0.00,,,0.00,VWS V13.01,2013-06-17 16:10:00,
2013-06-17 11:15:00,87.9,72.3,29.91,SW,217,4.0,7.0,60,0.00,,,0.00,VWS V13.01,2013-06-17 16:15:00,
2013-06-17 11:20:00,88.2,73.1,29.90,SSW,198,7.0,9.0,61,0.00,,,0.00,VWS V13.01,2013-06-17 16:20:00,
2013-06-17 11:25:00,88.3,72.2,29.90,SSW,195,2.0,14.0,59,0.00,,,0.00,VWS V13.01,2013-06-17 16:25:00,
2013-06-17 11:30:00,88.2,72.1,29.90,SSW,211,0.0,14.0,59,0.00,,,0.00,VWS V13.01,2013-06-17 16:30:00,
2013-06-17 11:35:00,88.4,72.3,29.89,West,260,6.0,9.0,59,0.00,,,0.00,VWS V13.01,2013-06-17 16:35:00,
2013-06-17 11:40:00,89.1,72.4,29.89,SSW,193,8.0,12.0,58,0.00,,,0.00,VWS V13.01,2013-06-17 16:40:00,
2013-06-17 11:45:00,88.9,72.2,29.89,South,190,0.0,0.0,58,0.00,,,0.00,VWS V13.01,2013-06-17 16:45:00,
2013-06-17 11:50:00,89.6,72.9,29.89,South,171,0.0,8.0,58,0.00,,,0.00,VWS V13.01,2013-06-17 16:50:00,
2013-06-17 11:55:00,90.3,72.5,29.89,WSW,240,5.0,11.0,56,0.00,,,0.00,VWS V13.01,2013-06-17 16:55:00,
2013-06-17 12:00:00,90.3,70.9,29.89,WSW,241,3.0,12.0,53,0.00,,,0.00,VWS V13.01,2013-06-17 17:00:00,
2013-06-17 12:05:00,90.8,71.9,29.89,SSW,196,7.0,10.0,54,0.00,,,0.00,VWS V13.01,2013-06-17 17:05:00,
2013-06-17 12:10:00,90.6,71.7,29.89,SW,215,6.0,10.0,54,0.00,,,0.00,VWS V13.01,2013-06-17 17:10:00,
2013-06-17 12:15:00,90.7,71.8,29.88,SSW,205,2.0,7.0,54,0.00,,,0.00,VWS V13.01,2013-06-17 17:15:00,
2013-06-17 12:20:00,90.9,72.5,29.88,South,189,6.0,8.0,55,0.00,,,0.00,VWS V13.01,2013-06-17 17:20:00,
2013-06-17 12:25:00,91.4,71.9,29.88,SSW,209,4.0,10.0,53,0.00,,,0.00,VWS V13.01,2013-06-17 17:25:00,
2013-06-17 12:30:00,91.6,72.1,29.88,SSE,163,0.0,10.0,53,0.00,,,0.00,VWS V13.01,2013-06-17 17:30:00,
2013-06-17 12:36:00,91.9,71.8,29.88,WSW,247,5.0,8.0,52,0.00,,,0.00,VWS V13.01,2013-06-17 17:36:00,
2013-06-17 12:40:00,89.0,72.3,29.89,SSW,192,0.0,12.0,58,0.00,,,0.00,VWS V15.00,2013-06-17 17:40:00,
2013-06-17 12:41:00,91.8,71.1,29.88,South,171,0.0,8.0,51,0.00,,,0.00,VWS V13.01,2013-06-17 17:41:00,
2013-06-17 12:46:00,92.1,71.4,29.87,SSE,159,9.0,9.0,51,0.00,,,0.00,VWS V13.01,2013-06-17 17:46:00,
2013-06-17 12:50:00,89.7,73.0,29.89,SSW,200,7.0,8.0,58,0.00,,,0.00,VWS V15.00,2013-06-17 17:50:00,
2013-06-17 12:51:00,92.3,72.1,29.87,SE,137,4.0,16.0,52,0.00,,,0.00,VWS V13.01,2013-06-17 17:51:00,
2013-06-17 12:56:00,92.3,72.1,29.87,SSW,194,8.0,16.0,52,0.00,,,0.00,VWS V13.01,2013-06-17 17:56:00,
2013-06-17 13:00:00,90.4,71.5,29.89,SW,222,5.0,12.0,54,0.00,,,0.00,VWS V15.00,2013-06-17 18:00:00,
2013-06-17 13:01:00,92.5,71.8,29.86,SE,145,6.0,16.0,51,0.00,,,0.00,VWS V13.01,2013-06-17 18:01:00,
2013-06-17 13:06:00,92.5,71.2,29.86,SW,229,10.0,13.0,50,0.00,,,0.00,VWS V13.01,2013-06-17 18:06:00,
2013-06-17 13:10:00,90.6,71.7,29.89,SW,218,4.0,10.0,54,0.00,,,0.00,VWS V15.00,2013-06-17 18:10:00,
2013-06-17 13:11:00,93.3,72.5,29.86,SW,217,0.0,13.0,51,0.00,,,0.00,VWS V13.01,2013-06-17 18:11:00,
2013-06-17 13:16:00,93.7,72.3,29.85,South,189,5.0,11.0,50,0.00,,,0.00,VWS V13.01,2013-06-17 18:16:00,
2013-06-17 13:20:00,90.9,72.0,29.88,SW,214,5.0,8.0,54,0.00,,,0.00,VWS V15.00,2013-06-17 18:20:00,
2013-06-17 13:21:00,93.5,71.5,29.85,SW,215,7.0,15.0,49,0.00,,,0.00,VWS V13.01,2013-06-17 18:21:00,
2013-06-17 13:26:00,93.9,72.4,29.85,WSW,244,4.0,10.0,50,0.00,,,0.00,VWS V13.01,2013-06-17 18:26:00,
2013-06-17 13:30:00,91.8,72.2,29.88,South,179,0.0,10.0,53,0.00,,,0.00,VWS V15.00,2013-06-17 18:30:00,
2013-06-17 13:31:00,94.4,72.3,29.84,SSW,198,8.0,12.0,49,0.00,,,0.00,VWS V13.01,2013-06-17 18:31:00,
2013-06-17 13:36:00,94.8,70.8,29.84,SSW,213,6.0,10.0,46,0.00,,,0.00,VWS V13.01,2013-06-17 18:36:00,
2013-06-17 13:40:00,91.8,71.1,29.88,SW,214,0.0,8.0,51,0.00,,,0.00,VWS V15.00,2013-06-17 18:40:00,
2013-06-17 13:41:00,95.3,70.0,29.84,South,187,6.0,12.0,44,0.00,,,0.00,VWS V13.01,2013-06-17 18:41:00,
2013-06-17 13:46:00,94.8,69.5,29.84,SW,221,5.0,16.0,44,0.00,,,0.00,VWS V13.01,2013-06-17 18:46:00,
2013-06-17 13:50:00,92.3,72.1,29.87,South,184,16.0,16.0,52,0.00,,,0.00,VWS V15.00,2013-06-17 18:50:00,
2013-06-17 13:51:00,94.9,69.6,29.84,SSW,209,11.0,16.0,44,0.00,,,0.00,VWS V13.01,2013-06-17 18:51:00,
2013-06-17 13:56:00,94.1,70.2,29.84,SSW,192,4.0,17.0,46,0.00,,,0.00,VWS V13.01,2013-06-17 18:56:00,
2013-06-17 14:00:00,92.5,71.8,29.86,SSE,153,11.0,16.0,51,0.00,,,0.00,VWS V15.00,2013-06-17 19:00:00,
2013-06-17 14:01:00,94.1,70.8,29.83,WSW,242,7.0,17.0,47,0.00,,,0.00,VWS V13.01,2013-06-17 19:01:00,
2013-06-17 14:06:00,94.7,71.3,29.83,SSW,197,9.0,15.0,47,0.00,,,0.00,VWS V13.01,2013-06-17 19:06:00,
2013-06-17 14:10:00,93.3,72.5,29.86,SW,217,0.0,13.0,51,0.00,,,0.00,VWS V15.00,2013-06-17 19:10:00,
2013-06-17 14:11:00,94.7,70.7,29.83,South,186,15.0,15.0,46,0.00,,,0.00,VWS V13.01,2013-06-17 19:11:00,
2013-06-17 14:16:00,94.8,72.1,29.82,South,190,9.0,17.0,48,0.00,,,0.00,VWS V13.01,2013-06-17 19:16:00,
2013-06-17 14:20:00,93.5,71.5,29.85,WSW,243,6.0,15.0,49,0.00,,,0.00,VWS V15.00,2013-06-17 19:20:00,
2013-06-17 14:21:00,94.7,70.7,29.82,SSW,196,17.0,19.0,46,0.00,,,0.00,VWS V13.01,2013-06-17 19:21:00,
2013-06-17 14:26:00,94.6,71.3,29.82,SW,232,8.0,16.0,47,0.00,,,0.00,VWS V13.01,2013-06-17 19:26:00,
2013-06-17 14:30:00,94.4,72.3,29.84,SSW,200,8.0,12.0,49,0.00,,,0.00,VWS V15.00,2013-06-17 19:30:00,
2013-06-17 14:31:00,95.6,70.9,29.82,WSW,242,4.0,16.0,45,0.00,,,0.00,VWS V13.01,2013-06-17 19:31:00,
2013-06-17 14:36:00,95.8,70.4,29.82,WSW,238,7.0,13.0,44,0.00,,,0.00,VWS V13.01,2013-06-17 19:36:00,
2013-06-17 14:40:00,95.3,70.0,29.84,WSW,237,6.0,12.0,44,0.00,,,0.00,VWS V15.00,2013-06-17 19:40:00,
2013-06-17 14:41:00,95.5,69.5,29.82,SSW,199,6.0,7.0,43,0.00,,,0.00,VWS V13.01,2013-06-17 19:41:00,
2013-06-17 14:46:00,96.2,70.1,29.81,SSW,213,6.0,13.0,43,0.00,,,0.00,VWS V13.01,2013-06-17 19:46:00,
2013-06-17 14:50:00,94.9,69.6,29.84,SSW,199,7.0,16.0,44,0.00,,,0.00,VWS V15.00,2013-06-17 19:50:00,
2013-06-17 14:51:00,96.6,69.8,29.81,SW,215,8.0,13.0,42,0.00,,,0.00,VWS V13.01,2013-06-17 19:51:00,
2013-06-17 14:56:00,96.5,70.4,29.81,SSW,199,7.0,13.0,43,0.00,,,0.00,VWS V13.01,2013-06-17 19:56:00,
2013-06-17 15:00:00,94.1,70.8,29.83,WSW,240,6.0,17.0,47,0.00,,,0.00,VWS V15.00,2013-06-17 20:00:00,
2013-06-17 15:01:00,96.5,70.4,29.81,SW,216,4.0,13.0,43,0.00,,,0.00,VWS V13.01,2013-06-17 20:01:00,
2013-06-17 15:06:00,96.1,68.6,29.81,SSE,151,6.0,10.0,41,0.00,,,0.00,VWS V13.01,2013-06-17 20:06:00,
2013-06-17 15:10:00,94.7,70.7,29.83,SW,231,17.0,17.0,46,0.00,,,0.00,VWS V15.00,2013-06-17 20:10:00,
2013-06-17 15:11:00,95.7,69.6,29.81,SSW,211,7.0,11.0,43,0.00,,,0.00,VWS V13.01,2013-06-17 20:11:00,
2013-06-17 15:16:00,96.6,70.4,29.81,SSE,150,0.0,11.0,43,0.00,,,0.00,VWS V13.01,2013-06-17 20:16:00,
2013-06-17 15:20:00,94.7,70.7,29.82,SSW,211,11.0,19.0,46,0.00,,,0.00,VWS V15.00,2013-06-17 20:20:00,
2013-06-17 15:21:00,96.7,70.5,29.81,SSW,194,6.0,12.0,43,0.00,,,0.00,VWS V13.01,2013-06-17 20:21:00,
2013-06-17 15:26:00,97.6,71.3,29.81,SW,226,6.0,10.0,43,0.00,,,0.00,VWS V13.01,2013-06-17 20:26:00,
2013-06-17 15:30:00,95.6,70.9,29.82,WSW,242,4.0,16.0,45,0.00,,,0.00,VWS V15.00,2013-06-17 20:30:00,
2013-06-17 15:31:00,97.3,69.7,29.80,SSE,155,0.0,10.0,41,0.00,,,0.00,VWS V13.01,2013-06-17 20:31:00,
2013-06-17 15:36:00,97.1,70.2,29.80,SSW,196,1.0,4.0,42,0.00,,,0.00,VWS V13.01,2013-06-17 20:36:00,
2013-06-17 15:40:00,95.5,69.5,29.82,SSW,198,7.0,15.0,43,0.00,,,0.00,VWS V15.00,2013-06-17 20:40:00,
2013-06-17 15:41:00,96.2,68.7,29.80,SE,133,1.0,3.0,41,0.00,,,0.00,VWS V13.01,2013-06-17 20:41:00,
2013-06-17 15:46:00,96.0,69.2,29.79,SW,216,3.0,9.0,42,0.00,,,0.00,VWS V13.01,2013-06-17 20:46:00,
2013-06-17 15:50:00,96.6,69.8,29.81,SW,215,8.0,13.0,42,0.00,,,0.00,VWS V15.00,2013-06-17 20:50:00,
2013-06-17 15:51:00,97.1,69.5,29.79,SW,234,6.0,6.0,41,0.00,,,0.00,VWS V13.01,2013-06-17 20:51:00,
2013-06-17 15:56:00,96.6,69.1,29.79,SSW,201,6.0,13.0,41,0.00,,,0.00,VWS V13.01,2013-06-17 20:56:00,
2013-06-17 16:00:00,96.5,70.4,29.81,SW,216,4.0,13.0,43,0.00,,,0.00,VWS V15.00,2013-06-17 21:00:00,
2013-06-17 16:02:00,96.9,69.3,29.79,SW,224,6.0,13.0,41,0.00,,,0.00,VWS V13.01,2013-06-17 21:02:00,
2013-06-17 16:07:00,97.0,69.4,29.79,SSE,158,0.0,10.0,41,0.00,,,0.00,VWS V13.01,2013-06-17 21:07:00,
2013-06-17 16:10:00,95.7,69.6,29.81,SSW,211,7.0,11.0,43,0.00,,,0.00,VWS V15.00,2013-06-17 21:10:00,
2013-06-17 16:12:00,96.7,68.4,29.79,SSE,164,6.0,8.0,40,0.00,,,0.00,VWS V13.01,2013-06-17 21:12:00,
2013-06-17 16:17:00,96.2,68.7,29.78,SW,226,8.0,16.0,41,0.00,,,0.00,VWS V13.01,2013-06-17 21:17:00,
2013-06-17 16:20:00,96.7,70.5,29.81,South,177,0.0,12.0,43,0.00,,,0.00,VWS V15.00,2013-06-17 21:20:00,
2013-06-17 16:22:00,96.0,69.2,29.78,South,182,0.0,0.0,42,0.00,,,0.00,VWS V13.01,2013-06-17 21:22:00,
2013-06-17 16:27:00,95.4,68.0,29.78,SE,142,4.0,13.0,41,0.00,,,0.00,VWS V13.01,2013-06-17 21:27:00,
2013-06-17 16:30:00,97.3,69.7,29.80,SSE,155,0.0,10.0,41,0.00,,,0.00,VWS V15.00,2013-06-17 21:30:00,
2013-06-17 16:32:00,95.5,68.8,29.78,SW,217,8.0,10.0,42,0.00,,,0.00,VWS V13.01,2013-06-17 21:32:00,
2013-06-17 16:37:00,96.2,69.4,29.78,WSW,246,0.0,13.0,42,0.00,,,0.00,VWS V13.01,2013-06-17 21:37:00,
2013-06-17 16:40:00,96.2,68.7,29.80,SSW,192,3.0,17.0,41,0.00,,,0.00,VWS V15.00,2013-06-17 21:40:00,
2013-06-17 16:42:00,96.8,69.2,29.78,SSW,202,0.0,0.0,41,0.00,,,0.00,VWS V13.01,2013-06-17 21:42:00,
2013-06-17 16:47:00,96.7,69.8,29.78,SSW,210,6.0,12.0,42,0.00,,,0.00,VWS V13.01,2013-06-17 21:47:00,
2013-06-17 16:50:00,97.0,69.4,29.79,SW,236,6.0,17.0,41,0.00,,,0.00,VWS V15.00,2013-06-17 21:50:00,
2013-06-17 16:52:00,97.2,69.6,29.78,SSW,213,2.0,2.0,41,0.00,,,0.00,VWS V13.01,2013-06-17 21:52:00,
2013-06-17 16:57:00,97.5,68.4,29.78,SE,145,7.0,7.0,39,0.00,,,0.00,VWS V13.01,2013-06-17 21:57:00,
2013-06-17 17:00:00,96.9,69.3,29.79,SW,224,6.0,13.0,41,0.00,,,0.00,VWS V15.00,2013-06-17 22:00:00,
2013-06-17 17:02:00,97.1,68.8,29.78,SSW,199,2.0,9.0,40,0.00,,,0.00,VWS V13.01,2013-06-17 22:02:00,
2013-06-17 17:07:00,96.0,68.5,29.78,SSW,203,6.0,14.0,41,0.00,,,0.00,VWS V13.01,2013-06-17 22:07:00,
2013-06-17 17:10:00,96.7,68.4,29.79,SSW,204,0.0,11.0,40,0.00,,,0.00,VWS V15.00,2013-06-17 22:10:00,
2013-06-17 17:12:00,96.0,69.2,29.78,SW,229,0.0,3.0,42,0.00,,,0.00,VWS V13.01,2013-06-17 22:12:00,
2013-06-17 17:17:00,96.3,66.6,29.77,SSW,199,5.0,15.0,38,0.00,,,0.00,VWS V13.01,2013-06-17 22:17:00,
2013-06-17 17:20:00,96.1,69.3,29.78,South,169,0.0,16.0,42,0.00,,,0.00,VWS V15.00,2013-06-17 22:20:00,
2013-06-17 17:22:00,96.5,68.2,29.77,SW,223,11.0,11.0,40,0.00,,,0.00,VWS V13.01,2013-06-17 22:22:00,
2013-06-17 17:27:00,96.3,68.8,29.77,South,191,0.0,11.0,41,0.00,,,0.00,VWS V13.01,2013-06-17 22:27:00,
2013-06-17 17:30:00,95.5,68.8,29.78,SSW,192,10.0,13.0,42,0.00,,,0.00,VWS V15.00,2013-06-17 22:30:00,
2013-06-17 17:32:00,96.4,68.9,29.76,SW,229,0.0,7.0,41,0.00,,,0.00,VWS V13.01,2013-06-17 22:32:00,
2013-06-17 17:37:00,96.5,67.5,29.76,SW,233,9.0,13.0,39,0.00,,,0.00,VWS V13.01,2013-06-17 22:37:00,
2013-06-17 17:40:00,96.7,69.1,29.78,SW,215,0.0,13.0,41,0.00,,,0.00,VWS V15.00,2013-06-17 22:40:00,
2013-06-17 17:42:00,96.3,68.8,29.76,SW,232,7.0,11.0,41,0.00,,,0.00,VWS V13.01,2013-06-17 22:42:00,
2013-06-17 17:47:00,96.1,67.9,29.76,WSW,250,5.0,15.0,40,0.00,,,0.00,VWS V13.01,2013-06-17 22:47:00,
2013-06-17 17:50:00,97.0,70.1,29.78,SSW,199,0.0,12.0,42,0.00,,,0.00,VWS V15.00,2013-06-17 22:50:00,
2013-06-17 17:52:00,96.1,67.2,29.76,SSW,198,10.0,14.0,39,0.00,,,0.00,VWS V13.01,2013-06-17 22:52:00,
2013-06-17 17:57:00,96.1,67.2,29.76,WSW,237,10.0,14.0,39,0.00,,,0.00,VWS V13.01,2013-06-17 22:57:00,
2013-06-17 18:00:00,97.2,68.9,29.78,SSW,207,0.0,9.0,40,0.00,,,0.00,VWS V15.00,2013-06-17 23:00:00,
2013-06-17 18:02:00,96.5,68.2,29.76,SSW,203,0.0,5.0,40,0.00,,,0.00,VWS V13.01,2013-06-17 23:02:00,
2013-06-17 18:07:00,96.3,67.3,29.76,SSW,198,9.0,12.0,39,0.00,,,0.00,VWS V13.01,2013-06-17 23:07:00,
2013-06-17 18:10:00,95.9,69.1,29.78,SW,232,3.0,14.0,42,0.00,,,0.00,VWS V15.00,2013-06-17 23:10:00,
2013-06-17 18:12:00,95.8,66.9,29.76,SW,219,0.0,8.0,39,0.00,,,0.00,VWS V13.01,2013-06-17 23:12:00,
2013-06-17 18:17:00,95.8,68.3,29.75,South,173,0.0,8.0,41,0.00,,,0.00,VWS V13.01,2013-06-17 23:17:00,
2013-06-17 18:20:00,96.5,68.2,29.77,SSW,202,6.0,15.0,40,0.00,,,0.00,VWS V15.00,2013-06-17 23:20:00,
2013-06-17 18:22:00,96.2,68.0,29.75,SSW,209,0.0,11.0,40,0.00,,,0.00,VWS V13.01,2013-06-17 23:22:00,
2013-06-17 18:27:00,95.8,67.6,29.75,SSW,205,4.0,11.0,40,0.00,,,0.00,VWS V13.01,2013-06-17 23:27:00,
2013-06-17 18:30:00,96.2,68.0,29.76,SSW,207,0.0,11.0,40,0.00,,,0.00,VWS V15.00,2013-06-17 23:30:00,
2013-06-17 18:32:00,95.7,66.8,29.75,SW,215,8.0,11.0,39,0.00,,,0.00,VWS V13.01,2013-06-17 23:32:00,
2013-06-17 18:37:00,95.5,67.4,29.75,SW,222,5.0,11.0,40,0.00,,,0.00,VWS V13.01,2013-06-17 23:37:00,
2013-06-17 18:40:00,96.3,68.1,29.76,SSW,213,7.0,13.0,40,0.00,,,0.00,VWS V15.00,2013-06-17 23:40:00,
2013-06-17 18:42:00,95.5,66.6,29.75,WSW,237,0.0,3.0,39,0.00,,,0.00,VWS V13.01,2013-06-17 23:42:00,
2013-06-17 18:47:00,95.6,67.4,29.75,SW,215,0.0,3.0,40,0.00,,,0.00,VWS V13.01,2013-06-17 23:47:00,
2013-06-17 18:50:00,96.2,67.2,29.76,SSW,201,8.0,15.0,39,0.00,,,0.00,VWS V15.00,2013-06-17 23:50:00,
2013-06-17 18:52:00,95.5,66.6,29.75,SW,221,0.0,5.0,39,0.00,,,0.00,VWS V13.01,2013-06-17 23:52:00,
2013-06-17 18:57:00,95.3,66.4,29.75,WSW,240,5.0,10.0,39,0.00,,,0.00,VWS V13.01,2013-06-17 23:57:00,
2013-06-17 19:00:00,96.4,68.2,29.76,SW,224,0.0,14.0,40,0.00,,,0.00,VWS V15.00,2013-06-18 00:00:00,
2013-06-17 19:03:00,94.9,66.8,29.75,SSW,205,8.0,8.0,40,0.00,,,0.00,VWS V13.01,2013-06-18 00:03:00,
2013-06-17 19:08:00,94.6,65.8,29.75,SSW,206,5.0,13.0,39,0.00,,,0.00,VWS V13.01,2013-06-18 00:08:00,
2013-06-17 19:10:00,95.9,67.0,29.76,SSW,204,8.0,12.0,39,0.00,,,0.00,VWS V15.00,2013-06-18 00:10:00,
2013-06-17 19:13:00,94.5,65.7,29.75,SW,220,0.0,6.0,39,0.00,,,0.00,VWS V13.01,2013-06-18 00:13:00,
2013-06-17 19:18:00,94.2,66.2,29.75,SW,217,5.0,11.0,40,0.00,,,0.00,VWS V13.01,2013-06-18 00:18:00,
2013-06-17 19:20:00,96.2,68.7,29.75,SW,232,7.0,8.0,41,0.00,,,0.00,VWS V15.00,2013-06-18 00:20:00,
2013-06-17 19:23:00,93.7,66.5,29.75,SSW,192,7.0,11.0,41,0.00,,,0.00,VWS V13.01,2013-06-18 00:23:00,
2013-06-17 19:28:00,93.4,66.2,29.75,SSW,205,7.0,11.0,41,0.00,,,0.00,VWS V13.01,2013-06-18 00:28:00,
2013-06-17 19:30:00,95.7,67.5,29.75,SW,232,5.0,13.0,40,0.00,,,0.00,VWS V15.00,2013-06-18 00:30:00,
2013-06-17 19:33:00,93.1,66.6,29.75,South,171,0.0,10.0,42,0.00,,,0.00,VWS V13.01,2013-06-18 00:33:00,
2013-06-17 19:38:00,92.9,66.4,29.75,South,180,1.0,12.0,42,0.00,,,0.00,VWS V13.01,2013-06-18 00:38:00,
2013-06-17 19:40:00,95.4,67.3,29.75,WSW,240,3.0,11.0,40,0.00,,,0.00,VWS V15.00,2013-06-18 00:40:00,
2013-06-17 19:43:00,92.8,66.4,29.75,SSW,204,9.0,9.0,42,0.00,,,0.00,VWS V13.01,2013-06-18 00:43:00,
2013-06-17 19:48:00,92.7,66.9,29.76,SSW,201,0.0,9.0,43,0.00,,,0.00,VWS V13.01,2013-06-18 00:48:00,
2013-06-17 19:50:00,95.6,66.7,29.75,SSW,199,5.0,7.0,39,0.00,,,0.00,VWS V15.00,2013-06-18 00:50:00,
2013-06-17 19:53:00,92.5,66.8,29.76,SSW,196,0.0,7.0,43,0.00,,,0.00,VWS V13.01,2013-06-18 00:53:00,
2013-06-17 19:58:00,92.1,66.4,29.76,SSW,207,3.0,11.0,43,0.00,,,0.00,VWS V13.01,2013-06-18 00:58:00,
2013-06-17 20:00:00,95.0,66.9,29.75,South,184,0.0,10.0,40,0.00,,,0.00,VWS V15.00,2013-06-18 01:00:00,
2013-06-17 20:03:00,91.8,66.8,29.76,SW,236,0.0,7.0,44,0.00,,,0.00,VWS V13.01,2013-06-18 01:03:00,
2013-06-17 20:08:00,91.4,66.4,29.76,SSW,203,0.0,7.0,44,0.00,,,0.00,VWS V13.01,2013-06-18 01:08:00,
2013-06-17 20:10:00,94.5,65.7,29.75,WSW,241,0.0,13.0,39,0.00,,,0.00,VWS V15.00,2013-06-18 01:10:00,
2013-06-17 20:13:00,91.1,66.8,29.76,SSW,213,0.0,0.0,45,0.00,,,0.00,VWS V13.01,2013-06-18 01:13:00,
2013-06-17 20:18:00,90.8,66.6,29.76,SSW,213,0.0,0.0,45,0.00,,,0.00,VWS V13.01,2013-06-18 01:18:00,
2013-06-17 20:20:00,93.8,65.8,29.75,SSW,205,6.0,13.0,40,0.00,,,0.00,VWS V15.00,2013-06-18 01:20:00,
2013-06-17 20:23:00,90.4,66.8,29.76,SSW,213,0.0,0.0,46,0.00,,,0.00,VWS V13.01,2013-06-18 01:23:00,
2013-06-17 20:28:00,90.1,66.6,29.76,SSW,209,0.0,0.0,46,0.00,,,0.00,VWS V13.01,2013-06-18 01:28:00,
2013-06-17 20:30:00,93.3,66.1,29.75,SSW,203,10.0,12.0,41,0.00,,,0.00,VWS V15.00,2013-06-18 01:30:00,
2013-06-17 20:33:00,89.9,67.0,29.76,SSW,204,0.0,0.0,47,0.00,,,0.00,VWS V13.01,2013-06-18 01:33:00,
2013-06-17 20:38:00,89.6,66.7,29.76,SSW,203,0.0,0.0,47,0.00,,,0.00,VWS V13.01,2013-06-18 01:38:00,
2013-06-17 20:40:00,92.8,66.4,29.75,SSW,208,0.0,12.0,42,0.00,,,0.00,VWS V15.00,2013-06-18 01:40:00,
2013-06-17 20:43:00,89.3,67.1,29.76,SSW,204,0.0,0.0,48,0.00,,,0.00,VWS V13.01,2013-06-18 01:43:00,
2013-06-17 20:48:00,89.0,67.4,29.76,SSW,203,0.0,0.0,49,0.00,,,0.00,VWS V13.01,2013-06-18 01:48:00,
2013-06-17 20:50:00,92.6,66.9,29.76,SSW,200,6.0,9.0,43,0.00,,,0.00,VWS V15.00,2013-06-18 01:50:00,
2013-06-17 20:53:00,88.7,67.1,29.76,SSW,204,0.0,0.0,49,0.00,,,0.00,VWS V13.01,2013-06-18 01:53:00,
2013-06-17 20:58:00,88.4,67.4,29.76,SSW,204,0.0,0.0,50,0.00,,,0.00,VWS V13.01,2013-06-18 01:58:00,
2013-06-17 21:00:00,91.8,66.1,29.76,SSW,194,7.0,11.0,43,0.00,,,0.00,VWS V15.00,2013-06-18 02:00:00,
2013-06-17 21:03:00,88.1,67.1,29.76,SSW,204,0.0,0.0,50,0.00,,,0.00,VWS V13.01,2013-06-18 02:03:00,
2013-06-17 21:08:00,87.8,67.4,29.76,SSW,204,0.0,0.0,51,0.00,,,0.00,VWS V13.01,2013-06-18 02:08:00,
2013-06-17 21:10:00,91.2,66.9,29.76,SSW,213,0.0,7.0,45,0.00,,,0.00,VWS V15.00,2013-06-18 02:10:00,
2013-06-17 21:13:00,87.6,67.2,29.76,SSW,204,0.0,0.0,51,0.00,,,0.00,VWS V13.01,2013-06-18 02:13:00,
2013-06-17 21:18:00,87.6,67.2,29.76,SSW,203,0.0,0.0,51,0.00,,,0.00,VWS V13.01,2013-06-18 02:18:00,
2013-06-17 21:20:00,90.5,66.9,29.76,SSW,213,0.0,0.0,46,0.00,,,0.00,VWS V15.00,2013-06-18 02:20:00,
2013-06-17 21:23:00,87.4,67.6,29.76,SSW,203,0.0,0.0,52,0.00,,,0.00,VWS V13.01,2013-06-18 02:23:00,
2013-06-17 21:28:00,87.1,67.9,29.76,SSW,203,0.0,0.0,53,0.00,,,0.00,VWS V13.01,2013-06-18 02:28:00,
2013-06-17 21:30:00,89.9,67.0,29.76,SSW,203,0.0,0.0,47,0.00,,,0.00,VWS V15.00,2013-06-18 02:30:00,
2013-06-17 21:33:00,86.8,68.2,29.76,SSW,204,0.0,0.0,54,0.00,,,0.00,VWS V13.01,2013-06-18 02:33:00,
2013-06-17 21:38:00,86.5,67.9,29.76,SSW,203,0.0,0.0,54,0.00,,,0.00,VWS V13.01,2013-06-18 02:38:00,
2013-06-17 21:40:00,89.4,67.1,29.76,SSW,204,0.0,0.0,48,0.00,,,0.00,VWS V15.00,2013-06-18 02:40:00,
2013-06-17 21:43:00,86.4,67.8,29.76,SSW,204,0.0,0.0,54,0.00,,,0.00,VWS V13.01,2013-06-18 02:43:00,
2013-06-17 21:48:00,86.3,67.7,29.78,SSW,204,0.0,0.0,54,0.00,,,0.00,VWS V13.01,2013-06-18 02:48:00,
2013-06-17 21:50:00,88.8,67.2,29.76,SSW,204,0.0,0.0,49,0.00,,,0.00,VWS V15.00,2013-06-18 02:50:00,
2013-06-17 21:53:00,86.2,67.6,29.78,SSW,204,0.0,0.0,54,0.00,,,0.00,VWS V13.01,2013-06-18 02:53:00,
2013-06-17 21:58:00,86.1,67.5,29.78,SSW,204,0.0,0.0,54,0.00,,,0.00,VWS V13.01,2013-06-18 02:58:00,
2013-06-17 22:00:00,88.2,67.2,29.76,SSW,203,0.0,0.0,50,0.00,,,0.00,VWS V15.00,2013-06-18 03:00:00,
2013-06-17 22:03:00,86.2,67.6,29.80,SSW,204,0.0,0.0,54,0.00,,,0.00,VWS V13.01,2013-06-18 03:03:00,
2013-06-17 22:08:00,86.1,67.5,29.80,SSW,204,0.0,0.0,54,0.00,,,0.00,VWS V13.01,2013-06-18 03:08:00,
2013-06-17 22:10:00,87.7,67.3,29.76,SSW,204,0.0,0.0,51,0.00,,,0.00,VWS V15.00,2013-06-18 03:10:00,
2013-06-17 22:13:00,86.1,68.1,29.80,SSW,203,0.0,0.0,55,0.00,,,0.00,VWS V13.01,2013-06-18 03:13:00,
2013-06-17 22:18:00,86.0,68.5,29.79,SSW,204,0.0,0.0,56,0.00,,,0.00,VWS V13.01,2013-06-18 03:18:00,
2013-06-17 22:20:00,87.5,67.7,29.76,SSW,204,0.0,0.0,52,0.00,,,0.00,VWS V15.00,2013-06-18 03:20:00,
2013-06-17 22:23:00,85.8,68.3,29.79,SSW,204,0.0,0.0,56,0.00,,,0.00,VWS V13.01,2013-06-18 03:23:00,
2013-06-17 22:28:00,85.6,68.6,29.79,SSW,204,0.0,0.0,57,0.00,,,0.00,VWS V13.01,2013-06-18 03:28:00,
2013-06-17 22:30:00,86.9,68.3,29.76,SSW,204,0.0,0.0,54,0.00,,,0.00,VWS V15.00,2013-06-18 03:30:00,
2013-06-17 22:34:00,85.3,67.8,29.79,SSW,204,0.0,0.0,56,0.00,,,0.00,VWS V13.01,2013-06-18 03:34:00,
2013-06-17 22:39:00,85.0,67.6,29.79,SSW,204,0.0,0.0,56,0.00,,,0.00,VWS V13.01,2013-06-18 03:39:00,
2013-06-17 22:40:00,86.4,67.8,29.76,SSW,204,0.0,0.0,54,0.00,,,0.00,VWS V15.00,2013-06-18 03:40:00,
2013-06-17 22:44:00,84.9,67.5,29.79,SSW,204,0.0,0.0,56,0.00,,,0.00,VWS V13.01,2013-06-18 03:44:00,
2013-06-17 22:49:00,84.8,68.4,29.81,South,170,1.0,4.0,58,0.00,,,0.00,VWS V13.01,2013-06-18 03:49:00,
2013-06-17 22:50:00,86.2,67.6,29.78,SSW,203,0.0,0.0,54,0.00,,,0.00,VWS V15.00,2013-06-18 03:50:00,
2013-06-17 22:54:00,84.5,69.1,29.81,SSW,197,0.0,0.0,60,0.00,,,0.00,VWS V13.01,2013-06-18 03:54:00,
2013-06-17 22:59:00,84.1,68.7,29.81,SSW,197,0.0,0.0,60,0.00,,,0.00,VWS V13.01,2013-06-18 03:59:00,
2013-06-17 23:00:00,86.1,67.5,29.80,SSW,204,0.0,0.0,54,0.00,,,0.00,VWS V15.00,2013-06-18 04:00:00,
2013-06-17 23:01:00,84.0,68.6,29.83,SSW,196,0.0,0.0,60,0.00,,,0.00,VWS V13.01,2013-06-18 04:01:00,
2013-06-17 23:06:00,83.9,69.0,29.83,SSW,196,0.0,6.0,61,0.00,,,0.00,VWS V13.01,2013-06-18 04:06:00,
2013-06-17 23:10:00,86.1,67.5,29.80,SSW,204,0.0,0.0,54,0.00,,,0.00,VWS V15.00,2013-06-18 04:10:00,
2013-06-17 23:11:00,83.9,69.5,29.83,SSW,197,8.0,8.0,62,0.00,,,0.00,VWS V13.01,2013-06-18 04:11:00,
2013-06-17 23:16:00,84.2,70.7,29.83,SSW,210,0.0,12.0,64,0.00,,,0.00,VWS V13.01,2013-06-18 04:16:00,
2013-06-17 23:20:00,85.9,68.4,29.79,SSW,204,0.0,0.0,56,0.00,,,0.00,VWS V15.00,2013-06-18 04:20:00,
2013-06-17 23:21:00,84.2,71.2,29.83,South,183,11.0,13.0,65,0.00,,,0.00,VWS V13.01,2013-06-18 04:21:00,
2013-06-17 23:26:00,84.3,71.7,29.83,SSW,202,13.0,13.0,66,0.00,,,0.00,VWS V13.01,2013-06-18 04:26:00,
2013-06-17 23:30:00,85.4,67.9,29.79,SSW,204,0.0,0.0,56,0.00,,,0.00,VWS V15.00,2013-06-18 04:30:00,
2013-06-17 23:31:00,84.3,72.2,29.82,South,180,8.0,13.0,67,0.00,,,0.00,VWS V13.01,2013-06-18 04:31:00,
2013-06-17 23:36:00,84.2,72.5,29.82,SSW,198,3.0,15.0,68,0.00,,,0.00,VWS V13.01,2013-06-18 04:36:00,
2013-06-17 23:40:00,84.9,67.5,29.79,SSW,204,0.0,0.0,56,0.00,,,0.00,VWS V15.00,2013-06-18 04:40:00,
2013-06-17 23:41:00,84.1,72.4,29.82,SSW,200,7.0,16.0,68,0.00,,,0.00,VWS V13.01,2013-06-18 04:41:00,
2013-06-17 23:46:00,84.0,72.7,29.82,SSW,198,15.0,15.0,69,0.00,,,0.00,VWS V13.01,2013-06-18 04:46:00,
2013-06-17 23:50:00,84.7,69.3,29.81,SSW,194,0.0,8.0,60,0.00,,,0.00,VWS V15.00,2013-06-18 04:50:00,
2013-06-17 23:51:00,83.9,72.7,29.82,SSW,193,9.0,14.0,69,0.00,,,0.00,VWS V13.01,2013-06-18 04:51:00,
2013-06-17 23:56:00,83.9,73.1,29.82,SSW,194,12.0,17.0,70,0.00,,,0.00,VWS V13.01,2013-06-18 04:56:00,